createdAt,value
2023-01-08T00:02:05.626Z,92.60
2023-01-08T00:04:34.784Z,92.70
2023-01-08T00:07:04.155Z,92.70
2023-01-08T00:09:33.344Z,92.70
2023-01-08T00:12:02.559Z,92.60
2023-01-08T00:14:32.567Z,92.90
2023-01-08T00:17:01.808Z,92.90
2023-01-08T00:19:32.525Z,92.90
2023-01-08T00:22:01.702Z,92.80
2023-01-08T00:24:30.856Z,93.20
2023-01-08T00:27:00.020Z,93.50
2023-01-08T00:29:29.190Z,92.90
2023-01-08T00:31:58.297Z,92.70
2023-01-08T00:34:27.591Z,93.10
2023-01-08T00:36:56.781Z,92.90
2023-01-08T00:39:26.093Z,92.90
2023-01-08T00:41:55.246Z,93.20
2023-01-08T00:44:24.449Z,92.80
2023-01-08T00:46:53.751Z,92.80
2023-01-08T00:49:22.917Z,93.00
2023-01-08T00:51:52.062Z,92.90
2023-01-08T00:54:21.358Z,92.70
2023-01-08T00:56:50.513Z,92.50
2023-01-08T00:59:19.702Z,92.60
2023-01-08T01:01:49.193Z,92.40
2023-01-08T01:04:18.471Z,92.30
2023-01-08T01:06:47.750Z,92.30
2023-01-08T01:09:16.929Z,92.20
2023-01-08T01:11:46.108Z,92.10
2023-01-08T01:14:15.390Z,92.00
2023-01-08T01:16:45.130Z,91.90
2023-01-08T01:19:14.242Z,91.50
2023-01-08T01:21:44.051Z,91.70
2023-01-08T01:24:14.597Z,91.70
2023-01-08T01:26:44.283Z,91.80
2023-01-08T01:29:13.423Z,92.00
2023-01-08T01:31:42.603Z,91.60
2023-01-08T01:34:12.357Z,91.60
2023-01-08T01:36:41.562Z,91.20
2023-01-08T01:39:11.000Z,91.30
2023-01-08T01:41:45.320Z,91.30
2023-01-08T01:44:35.520Z,91.40
2023-01-08T01:47:25.951Z,91.40
2023-01-08T01:50:01.663Z,90.30
2023-01-08T01:52:34.932Z,91.10
2023-01-08T01:55:06.481Z,90.50
2023-01-08T01:57:36.030Z,90.30
2023-01-08T02:00:07.863Z,90.10
2023-01-08T02:02:37.154Z,90.20
2023-01-08T02:05:06.638Z,90.10
2023-01-08T02:08:03.320Z,90.30
2023-01-08T02:10:42.647Z,90.60
2023-01-08T02:13:21.797Z,90.00
2023-01-08T02:16:02.643Z,89.50
2023-01-08T02:18:41.728Z,89.70
2023-01-08T02:21:12.801Z,89.20
2023-01-08T02:23:50.340Z,88.90
2023-01-08T02:26:25.388Z,88.80
2023-01-08T02:29:03.826Z,87.60
2023-01-08T02:31:34.310Z,88.40
2023-01-08T02:34:03.655Z,89.10
2023-01-08T02:36:43.358Z,89.70
2023-01-08T02:39:18.047Z,87.90
2023-01-08T02:42:08.301Z,88.60
2023-01-08T02:44:41.797Z,88.50
2023-01-08T02:47:26.295Z,88.40
2023-01-08T02:50:05.595Z,88.00
2023-01-08T02:52:40.564Z,87.40
2023-01-08T02:55:11.110Z,86.70
2023-01-08T02:57:41.566Z,87.70
2023-01-08T03:00:11.860Z,87.50
2023-01-08T03:02:42.754Z,86.60
2023-01-08T03:05:23.000Z,86.30
2023-01-08T03:07:52.699Z,86.00
2023-01-08T03:10:26.575Z,86.60
2023-01-08T03:12:58.273Z,85.40
2023-01-08T03:15:36.278Z,86.30
2023-01-08T03:18:12.084Z,85.80
2023-01-08T03:20:41.605Z,84.80
2023-01-08T03:23:12.846Z,85.40
2023-01-08T03:25:45.112Z,85.10
2023-01-08T03:28:24.810Z,85.10
2023-01-08T03:30:55.648Z,84.70
2023-01-08T03:33:27.469Z,85.60
2023-01-08T03:35:59.043Z,84.60
2023-01-08T03:38:35.140Z,84.10
2023-01-08T03:41:08.681Z,83.50
2023-01-08T03:43:38.112Z,84.60
2023-01-08T03:46:15.802Z,82.80
2023-01-08T03:48:45.524Z,83.40
2023-01-08T03:51:14.662Z,83.40
2023-01-08T03:53:43.981Z,84.60
2023-01-08T03:56:13.176Z,84.20
2023-01-08T03:58:42.368Z,84.00
2023-01-08T04:01:11.779Z,83.50
2023-01-08T04:03:40.973Z,84.80
2023-01-08T04:06:10.167Z,83.90
2023-01-08T04:08:39.348Z,81.60
2023-01-08T04:11:08.554Z,82.70
2023-01-08T04:13:37.720Z,82.10
2023-01-08T04:16:07.573Z,82.40
2023-01-08T04:18:36.754Z,82.30
2023-01-08T04:21:06.168Z,82.30
2023-01-08T04:23:35.527Z,81.90
2023-01-08T04:26:08.687Z,82.60
2023-01-08T04:28:38.476Z,80.90
2023-01-08T04:31:10.270Z,81.70
2023-01-08T04:33:39.530Z,80.40
2023-01-08T04:36:08.758Z,80.40
2023-01-08T04:38:38.000Z,82.60
2023-01-08T04:41:08.921Z,80.60
2023-01-08T04:43:38.103Z,80.90
2023-01-08T04:46:09.318Z,79.80
2023-01-08T04:48:38.996Z,79.40
2023-01-08T04:51:08.398Z,79.80
2023-01-08T04:53:40.721Z,78.90
2023-01-08T04:56:12.186Z,78.60
2023-01-08T04:58:42.108Z,77.90
2023-01-08T05:01:17.943Z,79.00
2023-01-08T05:03:48.303Z,79.10
2023-01-08T05:06:17.789Z,78.00
2023-01-08T05:08:46.908Z,78.60
2023-01-08T05:11:16.155Z,77.00
2023-01-08T05:13:45.604Z,78.70
2023-01-08T05:16:14.825Z,78.00
2023-01-08T05:18:44.436Z,77.70
2023-01-08T05:21:14.997Z,76.70
2023-01-08T05:23:49.069Z,77.20
2023-01-08T05:26:18.834Z,76.70
2023-01-08T05:28:48.404Z,78.00
2023-01-08T05:31:17.882Z,77.40
2023-01-08T05:33:47.074Z,76.50
2023-01-08T05:36:16.264Z,76.70
2023-01-08T05:38:45.500Z,75.30
2023-01-08T05:41:14.692Z,77.40
2023-01-08T05:43:44.016Z,75.70
2023-01-08T05:46:13.331Z,74.60
2023-01-08T05:48:42.547Z,75.30
2023-01-08T05:51:11.761Z,74.90
2023-01-08T05:53:41.275Z,76.30
2023-01-08T05:56:13.154Z,75.10
2023-01-08T05:58:42.373Z,75.40
2023-01-08T06:01:17.450Z,74.60
2023-01-08T06:03:46.687Z,75.60
2023-01-08T06:06:17.346Z,75.20
2023-01-08T06:08:46.543Z,75.50
2023-01-08T06:11:16.454Z,77.20
2023-01-08T06:13:46.414Z,76.20
2023-01-08T06:16:15.666Z,74.40
2023-01-08T06:18:45.193Z,76.30
2023-01-08T06:21:14.873Z,75.10
2023-01-08T06:23:44.075Z,74.60
2023-01-08T06:26:13.279Z,74.80
2023-01-08T06:28:42.395Z,75.30
2023-01-08T06:31:11.644Z,74.70
2023-01-08T06:33:40.943Z,73.80
2023-01-08T06:36:10.490Z,74.70
2023-01-08T06:38:39.848Z,75.50
2023-01-08T06:41:11.699Z,75.20
2023-01-08T06:43:41.325Z,75.30
2023-01-08T06:46:11.665Z,75.00
2023-01-08T06:48:40.892Z,74.80
2023-01-08T06:51:10.091Z,76.10
2023-01-08T06:53:39.272Z,75.70
2023-01-08T06:56:10.859Z,74.80
2023-01-08T06:58:41.098Z,75.00
2023-01-08T07:01:15.701Z,75.40
2023-01-08T07:03:45.452Z,77.10
2023-01-08T07:06:18.610Z,76.70
2023-01-08T07:08:48.464Z,76.50
2023-01-08T07:11:18.127Z,75.60
2023-01-08T07:13:47.373Z,74.90
2023-01-08T07:16:17.679Z,74.10
2023-01-08T07:18:49.403Z,74.70
2023-01-08T07:21:18.607Z,74.70
2023-01-08T07:23:49.609Z,75.30
2023-01-08T07:26:19.546Z,74.70
2023-01-08T07:28:48.655Z,74.80
2023-01-08T07:31:17.874Z,75.60
2023-01-08T07:33:47.092Z,74.10
2023-01-08T07:36:17.165Z,74.80
2023-01-08T07:38:46.423Z,74.70
2023-01-08T07:41:15.515Z,74.20
2023-01-08T07:43:44.739Z,74.60
2023-01-08T07:46:13.915Z,73.80
2023-01-08T07:48:43.284Z,73.90
2023-01-08T07:51:12.979Z,73.40
2023-01-08T07:53:42.260Z,74.30
2023-01-08T07:56:12.647Z,73.80
2023-01-08T07:58:41.930Z,74.10
2023-01-08T08:01:12.886Z,75.80
2023-01-08T08:03:42.200Z,74.30
2023-01-08T08:06:11.584Z,73.70
2023-01-08T08:08:42.172Z,73.40
2023-01-08T08:11:11.680Z,74.30
2023-01-08T08:13:46.111Z,74.10
2023-01-08T08:16:15.426Z,74.60
2023-01-08T08:18:44.691Z,73.50
2023-01-08T08:21:14.932Z,72.90
2023-01-08T08:23:44.077Z,74.10
2023-01-08T08:26:13.826Z,73.80
2023-01-08T08:28:43.048Z,74.80
2023-01-08T08:31:12.288Z,75.40
2023-01-08T08:33:41.549Z,75.90
2023-01-08T08:36:11.210Z,76.00
2023-01-08T08:38:41.388Z,74.80
2023-01-08T08:41:10.631Z,75.60
2023-01-08T08:43:39.811Z,75.80
2023-01-08T08:46:08.983Z,75.70
2023-01-08T08:48:38.145Z,75.30
2023-01-08T08:51:07.445Z,75.70
2023-01-08T08:53:36.631Z,75.40
2023-01-08T08:56:06.220Z,75.50
2023-01-08T08:58:35.454Z,74.50
2023-01-08T09:01:06.371Z,75.50
2023-01-08T09:03:35.865Z,75.60
2023-01-08T09:06:05.179Z,75.80
2023-01-08T09:08:34.437Z,76.30
2023-01-08T09:11:04.801Z,75.90
2023-01-08T09:13:34.046Z,76.60
2023-01-08T09:16:04.041Z,76.40
2023-01-08T09:18:33.187Z,75.90
2023-01-08T09:21:07.571Z,76.40
2023-01-08T09:23:37.414Z,76.50
2023-01-08T09:26:07.603Z,75.10
2023-01-08T09:28:37.016Z,74.80
2023-01-08T09:31:06.645Z,75.50
2023-01-08T09:33:35.869Z,76.40
2023-01-08T09:36:05.204Z,76.70
2023-01-08T09:38:34.329Z,76.80
2023-01-08T09:41:08.913Z,76.30
2023-01-08T09:43:42.469Z,76.20
2023-01-08T09:46:13.900Z,76.00
2023-01-08T09:48:44.658Z,76.60
2023-01-08T09:51:16.723Z,76.30
2023-01-08T09:53:47.068Z,75.90
2023-01-08T09:56:19.344Z,76.40
2023-01-08T09:58:50.387Z,77.10
2023-01-08T10:01:24.378Z,76.60
2023-01-08T10:03:59.990Z,76.80
2023-01-08T10:06:29.213Z,76.50
2023-01-08T10:08:58.888Z,76.90
2023-01-08T10:11:35.547Z,76.70
2023-01-08T10:14:04.977Z,77.20
2023-01-08T10:16:39.380Z,77.10
2023-01-08T10:19:11.450Z,77.20
2023-01-08T10:21:42.950Z,77.40
2023-01-08T10:24:12.167Z,77.50
2023-01-08T10:26:41.405Z,77.10
2023-01-08T10:29:25.745Z,76.90
2023-01-08T10:32:00.029Z,77.10
2023-01-08T10:34:41.172Z,77.10
2023-01-08T10:37:31.574Z,77.30
2023-01-08T10:40:10.269Z,77.80
2023-01-08T10:42:41.941Z,77.60
2023-01-08T10:45:22.134Z,78.00
2023-01-08T10:47:54.845Z,78.90
2023-01-08T10:50:28.036Z,78.30
2023-01-08T10:53:01.090Z,78.60
2023-01-08T10:55:33.979Z,78.30
2023-01-08T10:58:03.676Z,78.30
2023-01-08T11:00:34.969Z,78.90
2023-01-08T11:03:08.311Z,78.50
2023-01-08T11:05:40.461Z,78.40
2023-01-08T11:08:17.789Z,78.90
2023-01-08T11:10:56.507Z,78.50
2023-01-08T11:13:26.475Z,78.90
2023-01-08T11:16:12.012Z,78.70
2023-01-08T11:18:56.404Z,78.80
2023-01-08T11:21:28.432Z,79.10
2023-01-08T11:24:19.509Z,79.30
2023-01-08T11:26:55.572Z,79.20
2023-01-08T11:29:33.566Z,79.30
2023-01-08T11:32:20.106Z,79.50
2023-01-08T11:34:57.652Z,79.60
2023-01-08T11:37:35.313Z,79.60
2023-01-08T11:40:04.847Z,79.50
2023-01-08T11:42:54.042Z,79.60
2023-01-08T11:45:27.825Z,79.90
2023-01-08T11:48:36.192Z,79.70
2023-01-08T11:51:16.892Z,79.80
2023-01-08T11:54:00.684Z,80.30
2023-01-08T11:56:49.879Z,80.30
2023-01-08T11:59:32.368Z,80.30
2023-01-08T12:02:16.747Z,80.60
2023-01-08T12:05:09.888Z,80.80
2023-01-08T12:08:04.103Z,80.70
2023-01-08T12:10:56.871Z,81.00
2023-01-08T12:13:53.577Z,81.00
2023-01-08T12:16:42.693Z,81.00
2023-01-08T12:19:25.299Z,81.10
2023-01-08T12:22:14.594Z,81.30
2023-01-08T12:25:07.244Z,81.70
2023-01-08T12:27:57.437Z,81.50
2023-01-08T12:30:34.001Z,81.50
2023-01-08T12:33:11.585Z,82.40
2023-01-08T12:35:46.263Z,82.70
2023-01-08T12:38:38.326Z,82.40
2023-01-08T12:41:12.511Z,82.40
2023-01-08T12:43:55.273Z,82.10
2023-01-08T12:46:26.678Z,82.00
2023-01-08T12:48:58.175Z,82.00
2023-01-08T12:51:47.339Z,82.10
2023-01-08T12:54:28.491Z,82.10
2023-01-08T12:57:11.487Z,82.50
2023-01-08T13:00:02.194Z,82.60
2023-01-08T13:02:33.422Z,82.60
2023-01-08T13:05:14.890Z,82.60
2023-01-08T13:07:48.269Z,82.70
2023-01-08T13:10:56.890Z,82.90
2023-01-08T13:13:35.471Z,82.90
2023-01-08T13:16:22.277Z,82.90
2023-01-08T13:19:07.702Z,82.90
2023-01-08T13:21:40.381Z,83.10
2023-01-08T13:24:31.039Z,83.00
2023-01-08T13:27:13.520Z,83.00
2023-01-08T13:29:44.889Z,83.20
2023-01-08T13:32:50.034Z,83.70
2023-01-08T13:35:23.079Z,83.60
2023-01-08T13:37:54.928Z,83.50
2023-01-08T13:40:53.141Z,83.50
2023-01-08T13:43:43.241Z,83.60
2023-01-08T13:46:21.811Z,83.70
2023-01-08T13:49:09.944Z,83.40
2023-01-08T13:51:45.272Z,83.70
2023-01-08T13:54:16.534Z,83.60
2023-01-08T13:56:48.184Z,83.90
2023-01-08T13:59:26.791Z,84.00
2023-01-08T14:01:57.487Z,84.00
2023-01-08T14:04:27.196Z,84.20
2023-01-08T14:07:14.500Z,84.10
2023-01-08T14:09:43.838Z,84.20
2023-01-08T14:12:17.783Z,84.50
2023-01-08T14:14:53.472Z,84.10
2023-01-08T14:17:28.297Z,84.30
2023-01-08T14:19:57.631Z,84.20
2023-01-08T14:22:33.697Z,84.60
2023-01-08T14:25:07.762Z,84.30
2023-01-08T14:27:37.800Z,84.50
2023-01-08T14:30:18.768Z,84.40
2023-01-08T14:32:48.006Z,84.60
2023-01-08T14:35:20.902Z,84.70
2023-01-08T14:37:49.805Z,84.50
2023-01-08T14:40:29.886Z,84.20
2023-01-08T14:43:00.668Z,84.80
2023-01-08T14:45:33.092Z,84.80
2023-01-08T14:48:19.665Z,84.50
2023-01-08T14:51:04.119Z,85.00
2023-01-08T14:53:38.361Z,85.20
2023-01-08T14:56:09.368Z,85.20
2023-01-08T14:58:41.980Z,85.20
2023-01-08T15:01:22.129Z,85.20
2023-01-08T15:03:52.920Z,85.60
2023-01-08T15:06:33.282Z,85.60
2023-01-08T15:09:02.609Z,85.80
2023-01-08T15:11:34.102Z,85.80
2023-01-08T15:14:13.877Z,85.70
2023-01-08T15:16:44.620Z,86.20
2023-01-08T15:19:16.971Z,85.80
2023-01-08T15:21:56.374Z,85.50
2023-01-08T15:24:31.816Z,85.90
2023-01-08T15:27:11.102Z,85.70
2023-01-08T15:29:48.850Z,85.60
2023-01-08T15:32:19.085Z,85.80
2023-01-08T15:34:48.635Z,86.00
2023-01-08T15:37:18.244Z,86.40
2023-01-08T15:39:47.738Z,86.10
2023-01-08T15:42:40.111Z,86.20
2023-01-08T15:45:15.488Z,86.70
2023-01-08T15:47:44.838Z,86.90
2023-01-08T15:50:14.426Z,86.20
2023-01-08T15:52:45.346Z,87.10
2023-01-08T15:55:20.939Z,87.20
2023-01-08T15:57:57.687Z,87.50
2023-01-08T16:00:27.191Z,87.50
2023-01-08T16:02:57.184Z,87.90
2023-01-08T16:05:27.782Z,87.50
2023-01-08T16:07:56.941Z,88.20
2023-01-08T16:10:26.362Z,88.10
2023-01-08T16:12:55.640Z,88.70
2023-01-08T16:15:25.588Z,88.80
2023-01-08T16:17:54.851Z,89.00
2023-01-08T16:20:24.111Z,88.60
2023-01-08T16:22:53.410Z,89.20
2023-01-08T16:25:22.640Z,89.30
2023-01-08T16:27:51.939Z,89.40
2023-01-08T16:30:21.679Z,89.50
2023-01-08T16:32:55.456Z,89.70
2023-01-08T16:35:25.076Z,89.70
2023-01-08T16:37:54.363Z,89.60
2023-01-08T16:40:23.593Z,90.00
2023-01-08T16:42:53.371Z,90.00
2023-01-08T16:45:22.621Z,89.30
2023-01-08T16:47:51.875Z,89.80
2023-01-08T16:50:21.302Z,89.50
2023-01-08T16:52:52.448Z,90.20
2023-01-08T16:55:21.835Z,90.30
2023-01-08T16:57:51.118Z,90.40
2023-01-08T17:01:30.554Z,90.50
2023-01-08T17:04:01.080Z,90.00
2023-01-08T17:06:30.608Z,90.60
2023-01-08T17:09:01.909Z,90.70
2023-01-08T17:11:31.349Z,90.80
2023-01-08T17:14:00.854Z,90.70
2023-01-08T17:16:30.962Z,90.80
2023-01-08T17:19:00.378Z,90.80
2023-01-08T17:21:29.649Z,91.00
2023-01-08T17:24:04.444Z,91.10
2023-01-08T17:26:33.768Z,91.30
2023-01-08T17:29:03.160Z,91.40
2023-01-08T17:31:38.150Z,91.50
2023-01-08T17:34:09.513Z,91.60
2023-01-08T17:36:38.829Z,91.40
2023-01-08T17:39:08.174Z,91.20
2023-01-08T17:41:57.368Z,91.10
2023-01-08T17:44:27.880Z,91.20
2023-01-08T17:46:57.118Z,90.70
2023-01-08T17:49:26.300Z,90.80
2023-01-08T17:51:55.467Z,90.90
2023-01-08T17:54:25.618Z,90.50
2023-01-08T17:56:55.026Z,90.80
2023-01-08T17:59:24.241Z,90.90
2023-01-08T18:01:54.841Z,90.80
2023-01-08T18:04:24.078Z,90.90
2023-01-08T18:06:53.240Z,90.80
2023-01-08T18:09:22.807Z,90.60
2023-01-08T18:11:52.034Z,90.50
2023-01-08T18:14:22.355Z,91.20
2023-01-08T18:16:51.774Z,90.70
2023-01-08T18:19:21.561Z,90.70
2023-01-08T18:21:50.846Z,90.60
2023-01-08T18:24:20.060Z,90.60
2023-01-08T18:26:51.218Z,90.40
2023-01-08T18:29:20.453Z,90.40
2023-01-08T18:31:49.684Z,90.30
2023-01-08T18:34:18.863Z,90.30
2023-01-08T18:36:48.121Z,90.30
2023-01-08T18:39:17.346Z,90.30
2023-01-08T18:42:06.115Z,90.20
2023-01-08T18:44:35.312Z,90.30
2023-01-08T18:47:04.531Z,90.50
2023-01-08T18:49:33.674Z,90.30
2023-01-08T18:52:02.823Z,90.40
2023-01-08T18:54:33.224Z,90.70
2023-01-08T18:57:03.640Z,90.50
2023-01-08T18:59:32.772Z,90.60
2023-01-08T19:02:02.231Z,90.80
2023-01-08T19:04:31.571Z,90.80
2023-01-08T19:07:00.856Z,90.80
2023-01-08T19:09:30.098Z,90.80
2023-01-08T19:11:59.430Z,90.70
2023-01-08T19:14:28.619Z,90.80
2023-01-08T19:16:57.989Z,90.90
2023-01-08T19:19:28.985Z,91.20
2023-01-08T19:21:58.665Z,91.60
2023-01-08T19:24:27.836Z,91.30
2023-01-08T19:26:56.957Z,91.80
2023-01-08T19:29:26.125Z,91.50
2023-01-08T19:31:55.259Z,91.30
2023-01-08T19:34:24.498Z,91.40
2023-01-08T19:36:55.538Z,91.40
2023-01-08T19:39:24.855Z,91.40
2023-01-08T19:42:13.620Z,91.60
2023-01-08T19:44:42.770Z,91.80
2023-01-08T19:47:12.708Z,91.70
2023-01-08T19:49:47.883Z,91.70
2023-01-08T19:52:18.635Z,91.80
2023-01-08T19:54:48.389Z,91.70
2023-01-08T19:57:17.485Z,91.60
2023-01-08T19:59:46.635Z,91.50
2023-01-08T20:02:15.933Z,91.40
2023-01-08T20:04:45.271Z,91.30
2023-01-08T20:07:15.195Z,91.60
2023-01-08T20:09:44.580Z,91.60
2023-01-08T20:12:15.232Z,91.90
2023-01-08T20:14:44.320Z,91.80
2023-01-08T20:17:13.675Z,92.00
2023-01-08T20:19:42.895Z,91.90
2023-01-08T20:22:12.164Z,91.80
2023-01-08T20:24:41.851Z,91.80
2023-01-08T20:27:11.150Z,91.60
2023-01-08T20:29:40.705Z,91.40
2023-01-08T20:32:09.972Z,91.30
2023-01-08T20:34:39.126Z,91.20
2023-01-08T20:37:08.874Z,91.20
2023-01-08T20:39:38.209Z,91.70
2023-01-08T20:42:08.491Z,91.90
2023-01-08T20:44:38.146Z,92.00
2023-01-08T20:47:07.406Z,92.00
2023-01-08T20:49:36.556Z,91.80
2023-01-08T20:52:05.877Z,91.80
2023-01-08T20:54:35.035Z,91.90
2023-01-08T20:57:04.189Z,91.90
2023-01-08T20:59:33.426Z,91.80
2023-01-08T21:02:02.724Z,91.70
2023-01-08T21:04:31.981Z,91.70
2023-01-08T21:07:01.679Z,91.70
2023-01-08T21:09:30.777Z,91.60
2023-01-08T21:12:00.178Z,91.90
2023-01-08T21:14:29.314Z,91.80
2023-01-08T21:16:58.404Z,91.70
2023-01-08T21:19:27.556Z,91.90
2023-01-08T21:21:56.647Z,91.80
2023-01-08T21:24:25.838Z,91.80
2023-01-08T21:26:54.985Z,91.90
2023-01-08T21:29:24.937Z,91.80
2023-01-08T21:31:54.150Z,91.90
2023-01-08T21:34:23.429Z,92.00
2023-01-08T21:36:52.524Z,92.00
2023-01-08T21:39:21.625Z,92.00
2023-01-08T21:42:10.455Z,92.00
2023-01-08T21:44:59.192Z,91.80
2023-01-08T21:47:30.345Z,91.80
2023-01-08T21:49:59.611Z,91.70
2023-01-08T21:52:48.421Z,91.70
2023-01-08T21:55:18.717Z,91.70
2023-01-08T21:57:48.038Z,91.60
2023-01-08T22:00:20.434Z,91.60
2023-01-08T22:02:49.633Z,91.70
2023-01-08T22:05:18.897Z,91.60
2023-01-08T22:07:48.050Z,91.70
2023-01-08T22:10:17.479Z,91.70
2023-01-08T22:12:46.703Z,91.90
2023-01-08T22:15:17.045Z,91.70
2023-01-08T22:17:46.223Z,91.80
2023-01-08T22:20:15.968Z,91.70
2023-01-08T22:22:48.486Z,91.90
2023-01-08T22:25:17.862Z,92.20
2023-01-08T22:27:47.138Z,91.90
2023-01-08T22:30:16.815Z,92.10
2023-01-08T22:32:45.966Z,92.30
2023-01-08T22:35:15.180Z,92.10
2023-01-08T22:37:45.233Z,92.20
2023-01-08T22:40:14.604Z,92.30
2023-01-08T22:42:43.826Z,92.40
2023-01-08T22:45:13.097Z,92.20
2023-01-08T22:47:42.191Z,92.30
2023-01-08T22:50:12.094Z,92.40
2023-01-08T22:52:41.350Z,92.50
2023-01-08T22:55:10.889Z,92.50
2023-01-08T22:57:40.047Z,92.40
2023-01-08T23:00:12.191Z,92.40
2023-01-08T23:02:41.786Z,92.30
2023-01-08T23:05:12.449Z,92.50
2023-01-08T23:07:41.635Z,92.70
2023-01-08T23:10:11.937Z,92.80
2023-01-08T23:12:41.188Z,92.60
2023-01-08T23:15:10.901Z,92.70
2023-01-08T23:17:51.474Z,92.70
2023-01-08T23:20:22.060Z,93.00
2023-01-08T23:22:51.518Z,92.90
2023-01-08T23:25:20.658Z,92.70
2023-01-08T23:27:49.987Z,92.60
2023-01-08T23:30:19.336Z,92.60
2023-01-08T23:32:48.476Z,92.90
2023-01-08T23:35:17.681Z,93.00
2023-01-08T23:37:46.771Z,93.10
2023-01-08T23:40:16.363Z,93.20
2023-01-08T23:42:45.877Z,93.10
2023-01-08T23:45:14.983Z,93.00
2023-01-08T23:47:44.207Z,92.70
2023-01-08T23:50:13.873Z,92.40
2023-01-08T23:52:43.035Z,92.40
2023-01-08T23:55:12.258Z,92.40
2023-01-08T23:57:41.437Z,92.50
